createdAt,value
2019-01-14T00:02:56.848Z,6.10
2019-01-14T00:07:52.462Z,5.90
2019-01-14T00:12:48.113Z,5.60
2019-01-14T00:17:43.733Z,5.40
2019-01-14T00:22:39.570Z,5.20
2019-01-14T00:27:35.285Z,5.10
2019-01-14T00:32:30.970Z,5.00
2019-01-14T00:37:26.672Z,4.90
2019-01-14T00:42:22.392Z,4.90
2019-01-14T00:47:18.133Z,4.80
2019-01-14T00:52:13.822Z,4.80
2019-01-14T00:57:09.522Z,4.70
2019-01-14T01:02:05.344Z,4.70
2019-01-14T01:07:01.029Z,4.70
2019-01-14T01:11:56.714Z,4.60
2019-01-14T01:16:52.535Z,4.60
2019-01-14T01:21:48.246Z,4.50
2019-01-14T01:26:43.914Z,4.50
2019-01-14T01:31:39.597Z,4.40
2019-01-14T01:36:35.197Z,4.30
2019-01-14T01:41:30.858Z,4.20
2019-01-14T01:46:26.517Z,4.10
2019-01-14T01:51:22.185Z,3.90
2019-01-14T01:56:17.866Z,3.70
2019-01-14T02:01:13.550Z,3.50
2019-01-14T02:06:09.193Z,3.40
2019-01-14T02:11:04.856Z,3.40
2019-01-14T02:16:00.442Z,3.30
2019-01-14T02:20:56.122Z,3.30
2019-01-14T02:25:51.814Z,3.30
2019-01-14T02:30:47.474Z,3.20
2019-01-14T02:35:43.327Z,3.20
2019-01-14T02:40:39.003Z,3.10
2019-01-14T02:45:34.692Z,3.00
2019-01-14T02:50:30.328Z,3.00
2019-01-14T02:55:26.010Z,2.90
2019-01-14T03:00:24.482Z,3.00
2019-01-14T03:05:20.180Z,3.00
2019-01-14T03:10:15.992Z,3.00
2019-01-14T03:15:11.980Z,3.90
2019-01-14T03:20:09.671Z,4.90
2019-01-14T03:25:06.939Z,5.30
2019-01-14T03:30:02.553Z,5.50
2019-01-14T03:34:58.240Z,5.60
2019-01-14T03:39:53.863Z,5.50
2019-01-14T03:44:49.603Z,5.50
2019-01-14T03:49:45.283Z,5.50
2019-01-14T03:54:40.975Z,5.40
2019-01-14T03:59:36.658Z,5.40
2019-01-14T04:04:32.329Z,5.30
2019-01-14T04:09:27.933Z,5.20
2019-01-14T04:14:23.622Z,5.00
2019-01-14T04:19:19.310Z,4.90
2019-01-14T04:24:15.003Z,4.70
2019-01-14T04:29:10.611Z,4.60
2019-01-14T04:34:07.330Z,4.50
2019-01-14T04:39:05.974Z,4.50
2019-01-14T04:44:05.998Z,4.50
2019-01-14T04:49:04.712Z,4.40
2019-01-14T04:54:00.411Z,4.30
2019-01-14T04:58:59.324Z,4.30
2019-01-14T05:03:55.057Z,4.40
2019-01-14T05:08:50.797Z,4.40
2019-01-14T05:13:46.508Z,4.40
2019-01-14T05:18:42.224Z,4.40
2019-01-14T05:23:37.987Z,4.40
2019-01-14T05:28:35.381Z,4.30
2019-01-14T05:33:33.006Z,4.20
2019-01-14T05:38:28.701Z,4.00
2019-01-14T05:43:24.398Z,3.70
2019-01-14T05:48:20.158Z,3.50
2019-01-14T05:53:15.939Z,3.30
2019-01-14T05:58:11.703Z,3.20
2019-01-14T06:03:07.611Z,3.10
2019-01-14T06:08:03.316Z,3.00
2019-01-14T06:13:00.119Z,2.90
2019-01-14T06:17:55.829Z,2.60
2019-01-14T06:22:51.651Z,2.50
2019-01-14T06:27:47.380Z,2.40
2019-01-14T06:32:43.144Z,2.50
2019-01-14T06:37:38.897Z,3.70
2019-01-14T06:42:34.614Z,4.30
2019-01-14T06:47:30.376Z,4.60
2019-01-14T06:52:26.122Z,4.80
2019-01-14T06:57:21.847Z,4.90
2019-01-14T07:02:17.565Z,5.00
2019-01-14T07:07:13.320Z,5.00
2019-01-14T07:12:10.668Z,4.90
2019-01-14T07:17:07.546Z,4.70
2019-01-14T07:22:03.304Z,4.70
2019-01-14T07:26:59.099Z,4.70
2019-01-14T07:31:54.831Z,4.70
2019-01-14T07:36:50.539Z,4.70
2019-01-14T07:41:46.281Z,4.80
2019-01-14T07:46:42.047Z,5.10
2019-01-14T07:51:37.815Z,5.40
2019-01-14T07:56:33.578Z,5.70
2019-01-14T08:01:29.496Z,6.30
2019-01-14T08:06:25.219Z,6.80
2019-01-14T08:11:20.976Z,7.00
2019-01-14T08:16:16.722Z,7.20
2019-01-14T08:21:13.466Z,7.20
2019-01-14T08:26:09.244Z,7.30
2019-01-14T08:31:05.110Z,7.30
2019-01-14T08:36:00.844Z,7.50
2019-01-14T08:40:56.764Z,7.60
2019-01-14T08:45:53.537Z,7.60
2019-01-14T08:50:49.318Z,7.60
2019-01-14T08:55:45.085Z,7.80
2019-01-14T09:00:40.709Z,7.90
2019-01-14T09:05:36.460Z,7.90
2019-01-14T09:10:32.178Z,8.00
2019-01-14T09:15:27.934Z,7.90
2019-01-14T09:20:25.353Z,7.80
2019-01-14T09:25:21.086Z,7.90
2019-01-14T09:30:24.934Z,8.00
2019-01-14T09:35:21.005Z,7.90
2019-01-14T09:40:18.641Z,7.80
2019-01-14T09:45:14.770Z,7.70
2019-01-14T09:50:12.022Z,7.60
2019-01-14T09:55:09.715Z,7.60
2019-01-14T10:00:08.162Z,7.40
2019-01-14T10:05:05.591Z,7.30
2019-01-14T10:10:01.325Z,7.20
2019-01-14T10:14:57.033Z,7.30
2019-01-14T10:19:55.027Z,7.40
2019-01-14T10:24:50.790Z,7.40
2019-01-14T10:29:46.505Z,7.40
2019-01-14T10:34:43.223Z,7.60
2019-01-14T10:39:38.962Z,7.80
2019-01-14T10:44:34.779Z,8.20
2019-01-14T10:49:30.426Z,8.40
2019-01-14T10:54:26.148Z,8.70
2019-01-14T10:59:21.855Z,8.90
2019-01-14T11:04:17.562Z,9.10
2019-01-14T11:09:13.253Z,9.10
2019-01-14T11:14:08.974Z,9.20
2019-01-14T11:19:05.217Z,9.00
2019-01-14T11:24:00.994Z,9.20
2019-01-14T11:28:56.753Z,9.50
2019-01-14T11:33:52.574Z,9.60
2019-01-14T11:38:50.626Z,9.80
2019-01-14T11:43:46.350Z,10.20
2019-01-14T11:48:42.266Z,10.80
2019-01-14T11:53:38.092Z,11.10
2019-01-14T11:58:33.799Z,11.60
2019-01-14T12:03:29.511Z,11.80
2019-01-14T12:08:25.795Z,12.10
2019-01-14T12:13:22.940Z,12.20
2019-01-14T12:18:18.742Z,12.10
2019-01-14T12:23:15.498Z,12.20
2019-01-14T12:28:11.216Z,11.70
2019-01-14T12:33:07.109Z,11.40
2019-01-14T12:38:03.402Z,11.00
2019-01-14T12:42:59.123Z,10.90
2019-01-14T12:47:54.875Z,10.80
2019-01-14T12:52:50.590Z,11.40
2019-01-14T12:57:46.452Z,11.30
2019-01-14T13:02:42.182Z,11.00
2019-01-14T13:07:37.913Z,9.90
2019-01-14T13:12:36.098Z,9.20
2019-01-14T13:17:31.918Z,9.40
2019-01-14T13:22:27.771Z,9.60
2019-01-14T13:27:23.551Z,10.20
2019-01-14T13:32:21.214Z,10.50
2019-01-14T13:37:17.223Z,10.30
2019-01-14T13:42:13.076Z,9.80
2019-01-14T13:47:08.946Z,10.20
2019-01-14T13:52:04.697Z,10.50
2019-01-14T13:57:02.260Z,10.30
2019-01-14T14:01:58.032Z,10.10
2019-01-14T14:06:53.958Z,10.00
2019-01-14T14:11:49.758Z,9.90
2019-01-14T14:16:45.507Z,10.00
2019-01-14T14:21:42.222Z,9.70
2019-01-14T14:26:37.953Z,9.10
2019-01-14T14:31:33.753Z,8.90
2019-01-14T14:36:29.523Z,8.60
2019-01-14T14:41:25.310Z,8.30
2019-01-14T14:46:22.726Z,8.10
2019-01-14T14:51:18.967Z,8.00
2019-01-14T14:56:14.762Z,7.80
2019-01-14T15:01:10.488Z,7.70
2019-01-14T15:06:06.297Z,7.50
2019-01-14T15:11:02.018Z,7.40
2019-01-14T15:15:57.969Z,7.20
2019-01-14T15:20:53.655Z,7.10
2019-01-14T15:25:51.788Z,7.10
2019-01-14T15:30:48.519Z,6.90
2019-01-14T15:35:44.394Z,6.80
2019-01-14T15:40:40.306Z,6.60
2019-01-14T15:45:36.108Z,6.50
2019-01-14T15:50:31.821Z,6.30
2019-01-14T15:55:28.363Z,6.10
2019-01-14T16:00:24.202Z,5.80
2019-01-14T16:05:20.294Z,5.60
2019-01-14T16:10:18.210Z,5.40
2019-01-14T16:15:14.429Z,5.20
2019-01-14T16:20:12.673Z,5.10
2019-01-14T16:25:09.061Z,5.00
2019-01-14T16:30:05.754Z,4.90
2019-01-14T16:35:01.512Z,4.90
2019-01-14T16:39:57.270Z,4.80
2019-01-14T16:44:53.077Z,4.90
2019-01-14T16:49:48.931Z,4.90
2019-01-14T16:54:44.608Z,5.00
2019-01-14T16:59:40.508Z,4.90
2019-01-14T17:04:36.346Z,5.00
2019-01-14T17:09:32.169Z,5.00
2019-01-14T17:14:28.167Z,5.20
2019-01-14T17:19:25.236Z,5.30
2019-01-14T17:24:20.995Z,5.30
2019-01-14T17:29:16.755Z,5.20
2019-01-14T17:34:12.827Z,5.30
2019-01-14T17:39:09.879Z,5.30
2019-01-14T17:44:07.272Z,5.30
2019-01-14T17:49:03.010Z,5.30
2019-01-14T17:53:58.770Z,5.20
2019-01-14T17:58:54.726Z,5.00
2019-01-14T18:03:51.042Z,4.90
2019-01-14T18:08:49.481Z,5.00
2019-01-14T18:13:45.233Z,4.90
2019-01-14T18:18:41.004Z,5.00
2019-01-14T18:23:37.082Z,5.00
2019-01-14T18:28:32.830Z,5.00
2019-01-14T18:33:28.584Z,4.90
2019-01-14T18:38:24.307Z,4.80
2019-01-14T18:43:21.185Z,4.80
2019-01-14T18:48:17.121Z,4.70
2019-01-14T18:53:12.959Z,4.70
2019-01-14T18:58:09.197Z,4.60
2019-01-14T19:03:05.184Z,4.60
2019-01-14T19:08:04.219Z,4.50
2019-01-14T19:13:01.126Z,4.50
2019-01-14T19:17:56.926Z,4.40
2019-01-14T19:22:52.766Z,4.50
2019-01-14T19:27:48.606Z,4.60
2019-01-14T19:32:45.422Z,4.60
2019-01-14T19:37:42.100Z,4.60
2019-01-14T19:42:38.375Z,4.50
2019-01-14T19:47:34.070Z,4.40
2019-01-14T19:52:29.737Z,4.40
2019-01-14T19:57:25.434Z,4.40
2019-01-14T20:02:21.150Z,4.30
2019-01-14T20:07:17.266Z,3.70
2019-01-14T20:12:12.975Z,3.10
2019-01-14T20:17:08.759Z,2.70
2019-01-14T20:22:04.563Z,2.40
2019-01-14T20:27:00.481Z,2.00
2019-01-14T20:31:56.155Z,1.90
2019-01-14T20:36:53.574Z,1.80
2019-01-14T20:41:49.246Z,1.70
2019-01-14T20:46:44.991Z,1.80
2019-01-14T20:51:40.749Z,2.00
2019-01-14T20:56:36.622Z,2.00
2019-01-14T21:01:32.658Z,2.10
2019-01-14T21:06:28.437Z,2.10
2019-01-14T21:11:25.357Z,2.10
2019-01-14T21:16:21.112Z,2.10
2019-01-14T21:21:16.847Z,2.00
2019-01-14T21:26:13.231Z,2.00
2019-01-14T21:31:09.248Z,2.10
2019-01-14T21:36:06.246Z,2.10
2019-01-14T21:41:02.091Z,2.00
2019-01-14T21:45:57.961Z,2.00
2019-01-14T21:50:54.621Z,2.00
2019-01-14T21:55:50.461Z,1.90
2019-01-14T22:00:46.130Z,1.60
2019-01-14T22:05:41.807Z,1.50
2019-01-14T22:10:37.534Z,1.50
2019-01-14T22:15:33.190Z,1.40
2019-01-14T22:20:29.933Z,1.50
2019-01-14T22:25:25.673Z,1.50
2019-01-14T22:30:24.229Z,1.60
2019-01-14T22:35:19.895Z,1.70
2019-01-14T22:40:15.744Z,1.70
2019-01-14T22:45:11.657Z,1.70
2019-01-14T22:50:09.702Z,1.60
2019-01-14T22:55:06.367Z,1.60
2019-01-14T23:00:02.073Z,1.40
2019-01-14T23:04:57.721Z,1.30
2019-01-14T23:09:53.419Z,1.20
2019-01-14T23:14:50.202Z,1.10
2019-01-14T23:19:45.845Z,1.00
2019-01-14T23:24:41.526Z,0.90
2019-01-14T23:29:37.204Z,0.90
2019-01-14T23:34:32.859Z,0.80
2019-01-14T23:39:28.510Z,0.70
2019-01-14T23:44:24.173Z,0.50
2019-01-14T23:49:20.957Z,0.50
2019-01-14T23:54:16.577Z,0.40
2019-01-14T23:59:12.290Z,0.30
